UAL155 PGUM-PTKK
Flight info
| Callsign | UAL155 |
|---|---|
| Flight time | 1h 25m |
| Altitude | 37000 |
| Route | GUNSS WUMVE |
| Aircraft | B738/M-SDE2E3FGHIRWXY/LB1 |
Departure
| Time | 2026-04-28 09:05 |
|---|---|
| Airport | Antonio B. Won Pat International Airport (PGUM) |
Arrival
| Time | 2026-04-28 10:31 |
|---|---|
| Airport | Chuuk International Airport (PTKK) |
| Time | Latitude | Longitude | Altitude | Speed | Heading |
|---|---|---|---|---|---|
| 2026-04-28 08:24 | 13.49425 | 144.80927 | 296 ft | 0 kts | 241° |
| 2026-04-28 08:53 | 13.49434 | 144.80948 | 296 ft | 4 kts | 249° |
| 2026-04-28 08:54 | 13.49445 | 144.80973 | 297 ft | 4 kts | 231° |
| 2026-04-28 08:54 | 13.49465 | 144.80990 | 298 ft | 4 kts | 195° |
| 2026-04-28 08:54 | 13.49483 | 144.80989 | 299 ft | 1 kts | 152° |
| 2026-04-28 08:54 | 13.49486 | 144.80988 | 296 ft | 0 kts | 152° |
| 2026-04-28 08:58 | 13.49485 | 144.80988 | 296 ft | 1 kts | 152° |
| 2026-04-28 08:58 | 13.49459 | 144.81003 | 297 ft | 8 kts | 152° |
| 2026-04-28 08:58 | 13.49391 | 144.81040 | 298 ft | 13 kts | 153° |
| 2026-04-28 08:58 | 13.49309 | 144.81002 | 297 ft | 17 kts | 240° |
| 2026-04-28 08:59 | 13.49247 | 144.80886 | 300 ft | 20 kts | 241° |
| 2026-04-28 08:59 | 13.49181 | 144.80758 | 295 ft | 21 kts | 242° |
| 2026-04-28 08:59 | 13.49109 | 144.80622 | 295 ft | 22 kts | 241° |
| 2026-04-28 08:59 | 13.49038 | 144.80488 | 297 ft | 20 kts | 241° |
| 2026-04-28 09:00 | 13.48944 | 144.80379 | 293 ft | 21 kts | 224° |
| 2026-04-28 09:00 | 13.48864 | 144.80252 | 294 ft | 21 kts | 242° |
| 2026-04-28 09:00 | 13.48798 | 144.80112 | 291 ft | 23 kts | 245° |
| 2026-04-28 09:00 | 13.48727 | 144.79957 | 292 ft | 25 kts | 245° |
| 2026-04-28 09:01 | 13.48651 | 144.79791 | 288 ft | 27 kts | 245° |
| 2026-04-28 09:01 | 13.48571 | 144.79615 | 287 ft | 28 kts | 245° |
| 2026-04-28 09:01 | 13.48487 | 144.79431 | 285 ft | 29 kts | 245° |
| 2026-04-28 09:01 | 13.48412 | 144.79267 | 287 ft | 24 kts | 245° |
| 2026-04-28 09:02 | 13.48343 | 144.79118 | 284 ft | 23 kts | 245° |
| 2026-04-28 09:02 | 13.48277 | 144.78973 | 284 ft | 22 kts | 245° |
| 2026-04-28 09:02 | 13.48212 | 144.78832 | 283 ft | 21 kts | 245° |
| 2026-04-28 09:02 | 13.48148 | 144.78691 | 283 ft | 23 kts | 245° |
| 2026-04-28 09:03 | 13.48081 | 144.78543 | 285 ft | 23 kts | 245° |
| 2026-04-28 09:03 | 13.48009 | 144.78386 | 279 ft | 25 kts | 245° |
| 2026-04-28 09:03 | 13.47936 | 144.78228 | 278 ft | 19 kts | 245° |
| 2026-04-28 09:03 | 13.47882 | 144.78134 | 279 ft | 16 kts | 213° |
| 2026-04-28 09:04 | 13.47800 | 144.78186 | 265 ft | 16 kts | 88° |
| 2026-04-28 09:04 | 13.47824 | 144.78249 | 265 ft | 0 kts | 65° |
| 2026-04-28 09:04 | 13.47828 | 144.78258 | 265 ft | 5 kts | 65° |
| 2026-04-28 09:05 | 13.47920 | 144.78461 | 267 ft | 65 kts | 65° |
| 2026-04-28 09:05 | 13.48208 | 144.79090 | 277 ft | 127 kts | 65° |
| 2026-04-28 09:05 | 13.48646 | 144.80062 | 388 ft | 166 kts | 65° |
| 2026-04-28 09:05 | 13.49161 | 144.81149 | 994 ft | 174 kts | 64° |
| 2026-04-28 09:06 | 13.49717 | 144.82264 | 1628 ft | 180 kts | 64° |
| 2026-04-28 09:06 | 13.50301 | 144.83423 | 2272 ft | 186 kts | 63° |
| 2026-04-28 09:06 | 13.50925 | 144.84687 | 2526 ft | 207 kts | 68° |
| 2026-04-28 09:06 | 13.51026 | 144.86200 | 2732 ft | 226 kts | 105° |
| 2026-04-28 09:07 | 13.50181 | 144.87649 | 2961 ft | 248 kts | 126° |
| 2026-04-28 09:07 | 13.49036 | 144.89016 | 3636 ft | 253 kts | 127° |
| 2026-04-28 09:07 | 13.47864 | 144.90371 | 4406 ft | 256 kts | 128° |
| 2026-04-28 09:07 | 13.46671 | 144.91741 | 5125 ft | 259 kts | 128° |
| 2026-04-28 09:08 | 13.45464 | 144.93130 | 5866 ft | 261 kts | 128° |
| 2026-04-28 09:08 | 13.44253 | 144.94528 | 6627 ft | 262 kts | 128° |
| 2026-04-28 09:08 | 13.43031 | 144.95944 | 7322 ft | 267 kts | 128° |
| 2026-04-28 09:08 | 13.41792 | 144.97384 | 8020 ft | 271 kts | 128° |
| 2026-04-28 09:09 | 13.40538 | 144.98843 | 8764 ft | 274 kts | 128° |
| 2026-04-28 09:09 | 13.39274 | 145.00316 | 9501 ft | 276 kts | 128° |
| 2026-04-28 09:09 | 13.38011 | 145.01789 | 10195 ft | 281 kts | 128° |
| 2026-04-28 09:09 | 13.36684 | 145.03342 | 10496 ft | 301 kts | 128° |
| 2026-04-28 09:10 | 13.35252 | 145.05021 | 10669 ft | 323 kts | 128° |
| 2026-04-28 09:10 | 13.33731 | 145.06801 | 11020 ft | 337 kts | 128° |
| 2026-04-28 09:10 | 13.32167 | 145.08628 | 11574 ft | 343 kts | 129° |
| 2026-04-28 09:10 | 13.30580 | 145.10481 | 12205 ft | 348 kts | 129° |
| 2026-04-28 09:11 | 13.28974 | 145.12353 | 12885 ft | 350 kts | 129° |
| 2026-04-28 09:11 | 13.27357 | 145.14239 | 13581 ft | 353 kts | 129° |
| 2026-04-28 09:11 | 13.25729 | 145.16139 | 14209 ft | 356 kts | 129° |
| 2026-04-28 09:11 | 13.24079 | 145.18065 | 14826 ft | 361 kts | 129° |
| 2026-04-28 09:12 | 13.22415 | 145.20007 | 15477 ft | 364 kts | 129° |
| 2026-04-28 09:12 | 13.20736 | 145.21967 | 16113 ft | 367 kts | 129° |
| 2026-04-28 09:12 | 13.19042 | 145.23940 | 16739 ft | 370 kts | 130° |
| 2026-04-28 09:12 | 13.17330 | 145.25932 | 17321 ft | 374 kts | 130° |
| 2026-04-28 09:13 | 13.15601 | 145.27944 | 17886 ft | 378 kts | 130° |
| 2026-04-28 09:13 | 13.13859 | 145.29972 | 18464 ft | 381 kts | 130° |
| 2026-04-28 09:13 | 13.12100 | 145.32022 | 19000 ft | 384 kts | 130° |
| 2026-04-28 09:13 | 13.10326 | 145.34089 | 19496 ft | 388 kts | 130° |
| 2026-04-28 09:14 | 13.08534 | 145.36178 | 20011 ft | 391 kts | 130° |
| 2026-04-28 09:14 | 13.06750 | 145.38256 | 20494 ft | 395 kts | 130° |
| 2026-04-28 09:14 | 13.04928 | 145.40379 | 20968 ft | 398 kts | 130° |
| 2026-04-28 09:14 | 13.03093 | 145.42516 | 21433 ft | 401 kts | 130° |
| 2026-04-28 09:15 | 13.01240 | 145.44674 | 21880 ft | 405 kts | 130° |
| 2026-04-28 09:15 | 12.99372 | 145.46848 | 22336 ft | 407 kts | 130° |
| 2026-04-28 09:15 | 12.97490 | 145.49039 | 22764 ft | 411 kts | 130° |
| 2026-04-28 09:15 | 12.95594 | 145.51245 | 23168 ft | 414 kts | 130° |
| 2026-04-28 09:16 | 12.93685 | 145.53466 | 23586 ft | 416 kts | 130° |
| 2026-04-28 09:16 | 12.92389 | 145.54975 | 23839 ft | 419 kts | 130° |
| 2026-04-28 09:16 | 12.90480 | 145.57194 | 24215 ft | 421 kts | 130° |
| 2026-04-28 09:16 | 12.88535 | 145.59455 | 24584 ft | 424 kts | 130° |
| 2026-04-28 09:17 | 12.86570 | 145.61739 | 24880 ft | 429 kts | 130° |
| 2026-04-28 09:17 | 12.84581 | 145.64050 | 25213 ft | 433 kts | 130° |
| 2026-04-28 09:17 | 12.82586 | 145.66368 | 25563 ft | 435 kts | 130° |
| 2026-04-28 09:17 | 12.80574 | 145.68704 | 25875 ft | 438 kts | 130° |
| 2026-04-28 09:18 | 12.78548 | 145.71057 | 26184 ft | 442 kts | 130° |
| 2026-04-28 09:18 | 12.76506 | 145.73427 | 26485 ft | 445 kts | 130° |
| 2026-04-28 09:18 | 12.74450 | 145.75813 | 26782 ft | 448 kts | 130° |
| 2026-04-28 09:18 | 12.72390 | 145.78204 | 27067 ft | 451 kts | 130° |
| 2026-04-28 09:19 | 12.70302 | 145.80626 | 27344 ft | 454 kts | 130° |
| 2026-04-28 09:19 | 12.68207 | 145.83055 | 27617 ft | 456 kts | 130° |
| 2026-04-28 09:19 | 12.66098 | 145.85500 | 27898 ft | 459 kts | 130° |
| 2026-04-28 09:19 | 12.63975 | 145.87960 | 28162 ft | 462 kts | 130° |
| 2026-04-28 09:20 | 12.61841 | 145.90433 | 28418 ft | 464 kts | 130° |
| 2026-04-28 09:20 | 12.59725 | 145.92884 | 28670 ft | 467 kts | 130° |
| 2026-04-28 09:20 | 12.57567 | 145.95384 | 28906 ft | 470 kts | 130° |
| 2026-04-28 09:20 | 12.55394 | 145.97899 | 29136 ft | 473 kts | 130° |
| 2026-04-28 09:21 | 12.53210 | 146.00427 | 29369 ft | 475 kts | 130° |
| 2026-04-28 09:21 | 12.51012 | 146.02971 | 29611 ft | 477 kts | 130° |
| 2026-04-28 09:21 | 12.48810 | 146.05517 | 29839 ft | 479 kts | 130° |
| 2026-04-28 09:21 | 12.46595 | 146.08078 | 30057 ft | 481 kts | 130° |
| 2026-04-28 09:22 | 12.44371 | 146.10649 | 30264 ft | 484 kts | 130° |
| 2026-04-28 09:22 | 12.42140 | 146.13228 | 30490 ft | 485 kts | 130° |
| 2026-04-28 09:22 | 12.39894 | 146.15823 | 30713 ft | 487 kts | 130° |
| 2026-04-28 09:22 | 12.37669 | 146.18392 | 30926 ft | 488 kts | 130° |
| 2026-04-28 09:23 | 12.35416 | 146.20995 | 31214 ft | 488 kts | 130° |
| 2026-04-28 09:23 | 12.33166 | 146.23592 | 31566 ft | 487 kts | 130° |
| 2026-04-28 09:23 | 12.30925 | 146.26177 | 31922 ft | 485 kts | 130° |
| 2026-04-28 09:23 | 12.28688 | 146.28757 | 32226 ft | 485 kts | 130° |
| 2026-04-28 09:24 | 12.26451 | 146.31337 | 32501 ft | 485 kts | 130° |
| 2026-04-28 09:24 | 12.24211 | 146.33920 | 32814 ft | 484 kts | 130° |
| 2026-04-28 09:24 | 12.21980 | 146.36493 | 33148 ft | 483 kts | 130° |
| 2026-04-28 09:24 | 12.19751 | 146.39062 | 33461 ft | 483 kts | 130° |
| 2026-04-28 09:25 | 12.17524 | 146.41628 | 33762 ft | 482 kts | 130° |
| 2026-04-28 09:25 | 12.15299 | 146.44191 | 34117 ft | 481 kts | 130° |
| 2026-04-28 09:25 | 12.13082 | 146.46743 | 34447 ft | 479 kts | 130° |
| 2026-04-28 09:25 | 12.10869 | 146.49291 | 34751 ft | 479 kts | 130° |
| 2026-04-28 09:26 | 12.08662 | 146.51832 | 35054 ft | 478 kts | 130° |
| 2026-04-28 09:26 | 12.06455 | 146.54371 | 35380 ft | 477 kts | 130° |
| 2026-04-28 09:26 | 12.04257 | 146.56900 | 35726 ft | 475 kts | 130° |
| 2026-04-28 09:26 | 12.02067 | 146.59418 | 36010 ft | 474 kts | 130° |
| 2026-04-28 09:27 | 11.97685 | 146.64456 | 36552 ft | 473 kts | 130° |
| 2026-04-28 09:27 | 11.95500 | 146.66967 | 36841 ft | 472 kts | 130° |
| 2026-04-28 09:27 | 11.93314 | 146.69478 | 37053 ft | 472 kts | 130° |
| 2026-04-28 09:28 | 11.88919 | 146.74526 | 37076 ft | 476 kts | 130° |
| 2026-04-28 09:28 | 11.84553 | 146.79536 | 37069 ft | 472 kts | 131° |
| 2026-04-28 09:29 | 11.80213 | 146.84514 | 37072 ft | 467 kts | 131° |
| 2026-04-28 09:29 | 11.75900 | 146.89460 | 37065 ft | 465 kts | 131° |
| 2026-04-28 09:30 | 11.71595 | 146.94394 | 37068 ft | 464 kts | 131° |
| 2026-04-28 09:30 | 11.67331 | 146.99277 | 37064 ft | 463 kts | 131° |
| 2026-04-28 09:31 | 11.63045 | 147.04183 | 37069 ft | 463 kts | 131° |
| 2026-04-28 09:31 | 11.58759 | 147.09088 | 37064 ft | 463 kts | 131° |
| 2026-04-28 09:32 | 11.54473 | 147.13990 | 37068 ft | 463 kts | 131° |
| 2026-04-28 09:32 | 11.50188 | 147.18889 | 37059 ft | 463 kts | 131° |
| 2026-04-28 09:33 | 11.45897 | 147.23791 | 37058 ft | 463 kts | 131° |
| 2026-04-28 09:33 | 11.41629 | 147.28665 | 37055 ft | 462 kts | 131° |
| 2026-04-28 09:34 | 11.37346 | 147.33553 | 37055 ft | 462 kts | 131° |
| 2026-04-28 09:34 | 11.33059 | 147.38444 | 37057 ft | 462 kts | 131° |
| 2026-04-28 09:35 | 11.28779 | 147.43326 | 37047 ft | 461 kts | 132° |
| 2026-04-28 09:35 | 11.24501 | 147.48201 | 37047 ft | 461 kts | 132° |
| 2026-04-28 09:36 | 11.20226 | 147.53072 | 37045 ft | 460 kts | 132° |
| 2026-04-28 09:36 | 11.15967 | 147.57922 | 37049 ft | 459 kts | 132° |
| 2026-04-28 09:37 | 11.11736 | 147.62736 | 37042 ft | 458 kts | 132° |
| 2026-04-28 09:37 | 11.07486 | 147.67572 | 37036 ft | 457 kts | 132° |
| 2026-04-28 09:38 | 11.03245 | 147.72395 | 37036 ft | 457 kts | 132° |
| 2026-04-28 09:38 | 10.99007 | 147.77211 | 37033 ft | 456 kts | 132° |
| 2026-04-28 09:39 | 10.94799 | 147.81992 | 37036 ft | 456 kts | 132° |
| 2026-04-28 09:39 | 10.90565 | 147.86800 | 37030 ft | 456 kts | 132° |
| 2026-04-28 09:40 | 10.86330 | 147.91606 | 37025 ft | 456 kts | 132° |
| 2026-04-28 09:40 | 10.82092 | 147.96415 | 37027 ft | 456 kts | 132° |
| 2026-04-28 09:41 | 10.77855 | 148.01220 | 37033 ft | 456 kts | 132° |
| 2026-04-28 09:41 | 10.73618 | 148.06024 | 37032 ft | 456 kts | 133° |
| 2026-04-28 09:42 | 10.69420 | 148.10868 | 37018 ft | 456 kts | 132° |
| 2026-04-28 09:42 | 10.65270 | 148.15748 | 37025 ft | 456 kts | 132° |
| 2026-04-28 09:43 | 10.61121 | 148.20624 | 36968 ft | 456 kts | 132° |
| 2026-04-28 09:43 | 10.56977 | 148.25481 | 36963 ft | 453 kts | 132° |
| 2026-04-28 09:44 | 10.52837 | 148.30323 | 36961 ft | 454 kts | 132° |
| 2026-04-28 09:44 | 10.48687 | 148.35172 | 36955 ft | 455 kts | 132° |
| 2026-04-28 09:45 | 10.44524 | 148.40034 | 36954 ft | 456 kts | 132° |
| 2026-04-28 09:45 | 10.40356 | 148.44900 | 36954 ft | 456 kts | 132° |
| 2026-04-28 09:46 | 10.36186 | 148.49766 | 36953 ft | 457 kts | 132° |
| 2026-04-28 09:46 | 10.32036 | 148.54608 | 36944 ft | 457 kts | 132° |
| 2026-04-28 09:47 | 10.27864 | 148.59474 | 36944 ft | 457 kts | 132° |
| 2026-04-28 09:47 | 10.23693 | 148.64336 | 36944 ft | 456 kts | 132° |
| 2026-04-28 09:48 | 10.19528 | 148.69188 | 36943 ft | 455 kts | 132° |
| 2026-04-28 09:48 | 10.15366 | 148.74035 | 36940 ft | 454 kts | 132° |
| 2026-04-28 09:49 | 10.11239 | 148.78840 | 36933 ft | 454 kts | 132° |
| 2026-04-28 09:49 | 10.07090 | 148.83668 | 36935 ft | 453 kts | 132° |
| 2026-04-28 09:50 | 10.02948 | 148.88485 | 36934 ft | 453 kts | 132° |
| 2026-04-28 09:50 | 9.98814 | 148.93291 | 36935 ft | 452 kts | 132° |
| 2026-04-28 09:51 | 9.94674 | 148.98102 | 36918 ft | 452 kts | 132° |
| 2026-04-28 09:51 | 9.90545 | 149.02898 | 36929 ft | 451 kts | 132° |
| 2026-04-28 09:52 | 9.86416 | 149.07693 | 36930 ft | 450 kts | 132° |
| 2026-04-28 09:52 | 9.82291 | 149.12481 | 36920 ft | 450 kts | 132° |
| 2026-04-28 09:53 | 9.78198 | 149.17229 | 36921 ft | 450 kts | 132° |
| 2026-04-28 09:53 | 9.74077 | 149.22008 | 36916 ft | 450 kts | 132° |
| 2026-04-28 09:54 | 9.69953 | 149.26789 | 36918 ft | 449 kts | 132° |
| 2026-04-28 09:54 | 9.65860 | 149.31531 | 36918 ft | 449 kts | 132° |
| 2026-04-28 09:55 | 9.61744 | 149.36300 | 36922 ft | 449 kts | 133° |
| 2026-04-28 09:55 | 9.57627 | 149.41067 | 36912 ft | 449 kts | 133° |
| 2026-04-28 09:56 | 9.53511 | 149.45830 | 36911 ft | 449 kts | 133° |
| 2026-04-28 09:56 | 9.49397 | 149.50589 | 36917 ft | 449 kts | 133° |
| 2026-04-28 09:57 | 9.45309 | 149.55317 | 36918 ft | 449 kts | 133° |
| 2026-04-28 09:57 | 9.41188 | 149.60081 | 36908 ft | 449 kts | 133° |
| 2026-04-28 09:58 | 9.37072 | 149.64838 | 36908 ft | 449 kts | 132° |
| 2026-04-28 09:58 | 9.32946 | 149.69604 | 36911 ft | 449 kts | 132° |
| 2026-04-28 09:59 | 9.28825 | 149.74362 | 36904 ft | 449 kts | 132° |
| 2026-04-28 09:59 | 9.24702 | 149.79120 | 36903 ft | 449 kts | 132° |
| 2026-04-28 10:00 | 9.20576 | 149.83880 | 36912 ft | 449 kts | 132° |
| 2026-04-28 10:00 | 9.16480 | 149.88606 | 36903 ft | 449 kts | 132° |
| 2026-04-28 10:01 | 9.12357 | 149.93358 | 36899 ft | 449 kts | 132° |
| 2026-04-28 10:01 | 9.08230 | 149.98114 | 36895 ft | 449 kts | 132° |
| 2026-04-28 10:02 | 9.04105 | 150.02866 | 36901 ft | 448 kts | 132° |
| 2026-04-28 10:02 | 8.99989 | 150.07606 | 36899 ft | 448 kts | 132° |
| 2026-04-28 10:03 | 8.95877 | 150.12339 | 36889 ft | 447 kts | 132° |
| 2026-04-28 10:03 | 8.91797 | 150.17034 | 36888 ft | 447 kts | 132° |
| 2026-04-28 10:04 | 8.87690 | 150.21758 | 36679 ft | 449 kts | 132° |
| 2026-04-28 10:04 | 8.85619 | 150.24140 | 36175 ft | 450 kts | 132° |
| 2026-04-28 10:04 | 8.84252 | 150.25711 | 35792 ft | 448 kts | 132° |
| 2026-04-28 10:05 | 8.82192 | 150.28080 | 35150 ft | 449 kts | 132° |
| 2026-04-28 10:05 | 8.80129 | 150.30451 | 34495 ft | 450 kts | 132° |
| 2026-04-28 10:05 | 8.78058 | 150.32831 | 33831 ft | 451 kts | 132° |
| 2026-04-28 10:05 | 8.75996 | 150.35200 | 33363 ft | 447 kts | 132° |
| 2026-04-28 10:06 | 8.73952 | 150.37550 | 32875 ft | 443 kts | 132° |
| 2026-04-28 10:06 | 8.71921 | 150.39882 | 32402 ft | 440 kts | 132° |
| 2026-04-28 10:06 | 8.69907 | 150.42195 | 31932 ft | 436 kts | 132° |
| 2026-04-28 10:06 | 8.67910 | 150.44489 | 31469 ft | 433 kts | 132° |
| 2026-04-28 10:07 | 8.65928 | 150.46763 | 31009 ft | 430 kts | 132° |
| 2026-04-28 10:07 | 8.63962 | 150.49020 | 30550 ft | 426 kts | 132° |
| 2026-04-28 10:07 | 8.62010 | 150.51260 | 30090 ft | 423 kts | 132° |
| 2026-04-28 10:07 | 8.60068 | 150.53488 | 29635 ft | 420 kts | 132° |
| 2026-04-28 10:08 | 8.58147 | 150.55692 | 29177 ft | 417 kts | 131° |
| 2026-04-28 10:08 | 8.56237 | 150.57883 | 28712 ft | 413 kts | 131° |
| 2026-04-28 10:08 | 8.54345 | 150.60052 | 28250 ft | 410 kts | 131° |
| 2026-04-28 10:08 | 8.52465 | 150.62207 | 27789 ft | 407 kts | 131° |
| 2026-04-28 10:09 | 8.50597 | 150.64348 | 27332 ft | 404 kts | 131° |
| 2026-04-28 10:09 | 8.48764 | 150.66450 | 26883 ft | 402 kts | 131° |
| 2026-04-28 10:09 | 8.46924 | 150.68559 | 26416 ft | 399 kts | 131° |
| 2026-04-28 10:09 | 8.45093 | 150.70656 | 25978 ft | 396 kts | 130° |
| 2026-04-28 10:10 | 8.43274 | 150.72740 | 25530 ft | 393 kts | 131° |
| 2026-04-28 10:10 | 8.41472 | 150.74804 | 25087 ft | 391 kts | 130° |
| 2026-04-28 10:10 | 8.39680 | 150.76856 | 24641 ft | 388 kts | 130° |
| 2026-04-28 10:10 | 8.37896 | 150.78899 | 24198 ft | 386 kts | 130° |
| 2026-04-28 10:11 | 8.36124 | 150.80928 | 23765 ft | 384 kts | 130° |
| 2026-04-28 10:11 | 8.34366 | 150.82941 | 23331 ft | 381 kts | 130° |
| 2026-04-28 10:11 | 8.32613 | 150.84947 | 22892 ft | 379 kts | 130° |
| 2026-04-28 10:11 | 8.30873 | 150.86938 | 22458 ft | 377 kts | 130° |
| 2026-04-28 10:12 | 8.29143 | 150.88919 | 22032 ft | 375 kts | 130° |
| 2026-04-28 10:12 | 8.27423 | 150.90887 | 21610 ft | 373 kts | 130° |
| 2026-04-28 10:12 | 8.25712 | 150.92844 | 21170 ft | 371 kts | 130° |
| 2026-04-28 10:12 | 8.24011 | 150.94790 | 20755 ft | 368 kts | 130° |
| 2026-04-28 10:13 | 8.22319 | 150.96725 | 20333 ft | 366 kts | 130° |
| 2026-04-28 10:13 | 8.20636 | 150.98650 | 19912 ft | 364 kts | 130° |
| 2026-04-28 10:13 | 8.18961 | 151.00566 | 19494 ft | 362 kts | 131° |
| 2026-04-28 10:13 | 8.17298 | 151.02466 | 19065 ft | 360 kts | 131° |
| 2026-04-28 10:14 | 8.15665 | 151.04334 | 18661 ft | 358 kts | 131° |
| 2026-04-28 10:14 | 8.14019 | 151.06215 | 18247 ft | 356 kts | 131° |
| 2026-04-28 10:14 | 8.12378 | 151.08090 | 17835 ft | 354 kts | 131° |
| 2026-04-28 10:14 | 8.10750 | 151.09950 | 17425 ft | 353 kts | 131° |
| 2026-04-28 10:15 | 8.09131 | 151.11800 | 17021 ft | 351 kts | 131° |
| 2026-04-28 10:15 | 8.07518 | 151.13642 | 16602 ft | 349 kts | 131° |
| 2026-04-28 10:15 | 8.05918 | 151.15470 | 16205 ft | 347 kts | 131° |
| 2026-04-28 10:15 | 8.04325 | 151.17290 | 15802 ft | 344 kts | 131° |
| 2026-04-28 10:16 | 8.02744 | 151.19095 | 15407 ft | 342 kts | 131° |
| 2026-04-28 10:16 | 8.01193 | 151.20866 | 15025 ft | 340 kts | 131° |
| 2026-04-28 10:16 | 7.99636 | 151.22644 | 14644 ft | 337 kts | 131° |
| 2026-04-28 10:16 | 7.98078 | 151.24422 | 14220 ft | 336 kts | 131° |
| 2026-04-28 10:17 | 7.96536 | 151.26182 | 13837 ft | 334 kts | 131° |
| 2026-04-28 10:17 | 7.95002 | 151.27932 | 13452 ft | 332 kts | 131° |
| 2026-04-28 10:17 | 7.93479 | 151.29670 | 13062 ft | 330 kts | 131° |
| 2026-04-28 10:17 | 7.91964 | 151.31399 | 12681 ft | 327 kts | 131° |
| 2026-04-28 10:18 | 7.90456 | 151.33119 | 12290 ft | 325 kts | 131° |
| 2026-04-28 10:18 | 7.88978 | 151.34805 | 11917 ft | 323 kts | 131° |
| 2026-04-28 10:18 | 7.87496 | 151.36496 | 11538 ft | 321 kts | 131° |
| 2026-04-28 10:18 | 7.86020 | 151.38179 | 11140 ft | 319 kts | 130° |
| 2026-04-28 10:19 | 7.84557 | 151.39849 | 10766 ft | 317 kts | 130° |
| 2026-04-28 10:19 | 7.83102 | 151.41508 | 10392 ft | 314 kts | 130° |
| 2026-04-28 10:19 | 7.81663 | 151.43147 | 10189 ft | 306 kts | 130° |
| 2026-04-28 10:19 | 7.80271 | 151.44733 | 10027 ft | 298 kts | 130° |
| 2026-04-28 10:20 | 7.78857 | 151.46212 | 9887 ft | 290 kts | 140° |
| 2026-04-28 10:20 | 7.77092 | 151.47201 | 9574 ft | 291 kts | 153° |
| 2026-04-28 10:20 | 7.75242 | 151.48017 | 9250 ft | 290 kts | 154° |
| 2026-04-28 10:20 | 7.73389 | 151.48818 | 8920 ft | 289 kts | 154° |
| 2026-04-28 10:21 | 7.71546 | 151.49617 | 8601 ft | 288 kts | 153° |
| 2026-04-28 10:21 | 7.69738 | 151.50407 | 8290 ft | 286 kts | 153° |
| 2026-04-28 10:21 | 7.67916 | 151.51208 | 7978 ft | 285 kts | 153° |
| 2026-04-28 10:21 | 7.66106 | 151.52008 | 7666 ft | 283 kts | 153° |
| 2026-04-28 10:22 | 7.64308 | 151.52805 | 7358 ft | 282 kts | 153° |
| 2026-04-28 10:22 | 7.62519 | 151.53600 | 7053 ft | 280 kts | 153° |
| 2026-04-28 10:22 | 7.60743 | 151.54390 | 6749 ft | 279 kts | 153° |
| 2026-04-28 10:22 | 7.58971 | 151.55179 | 6439 ft | 277 kts | 152° |
| 2026-04-28 10:23 | 7.57210 | 151.55963 | 6137 ft | 276 kts | 152° |
| 2026-04-28 10:23 | 7.55461 | 151.56742 | 5842 ft | 274 kts | 152° |
| 2026-04-28 10:23 | 7.53723 | 151.57516 | 5548 ft | 272 kts | 152° |
| 2026-04-28 10:23 | 7.51993 | 151.58286 | 5241 ft | 271 kts | 152° |
| 2026-04-28 10:24 | 7.50275 | 151.59052 | 4954 ft | 269 kts | 152° |
| 2026-04-28 10:24 | 7.48569 | 151.59812 | 4678 ft | 266 kts | 152° |
| 2026-04-28 10:24 | 7.46889 | 151.60559 | 4570 ft | 265 kts | 152° |
| 2026-04-28 10:24 | 7.45180 | 151.61322 | 4234 ft | 269 kts | 153° |
| 2026-04-28 10:25 | 7.43530 | 151.62083 | 4110 ft | 260 kts | 147° |
| 2026-04-28 10:25 | 7.42172 | 151.63210 | 3982 ft | 248 kts | 131° |
| 2026-04-28 10:25 | 7.40975 | 151.64423 | 3864 ft | 240 kts | 132° |
| 2026-04-28 10:25 | 7.39799 | 151.65585 | 3746 ft | 233 kts | 132° |
| 2026-04-28 10:26 | 7.38651 | 151.66706 | 3639 ft | 226 kts | 133° |
| 2026-04-28 10:26 | 7.37537 | 151.67788 | 3555 ft | 218 kts | 132° |
| 2026-04-28 10:26 | 7.36465 | 151.68827 | 3477 ft | 209 kts | 132° |
| 2026-04-28 10:26 | 7.35440 | 151.69828 | 3290 ft | 202 kts | 129° |
| 2026-04-28 10:27 | 7.34841 | 151.71026 | 3100 ft | 187 kts | 95° |
| 2026-04-28 10:27 | 7.34982 | 151.72320 | 2915 ft | 189 kts | 69° |
| 2026-04-28 10:27 | 7.35701 | 151.73413 | 2715 ft | 187 kts | 47° |
| 2026-04-28 10:27 | 7.36600 | 151.74339 | 2504 ft | 182 kts | 47° |
| 2026-04-28 10:28 | 7.37469 | 151.75245 | 2292 ft | 178 kts | 46° |
| 2026-04-28 10:28 | 7.38319 | 151.76130 | 2062 ft | 173 kts | 46° |
| 2026-04-28 10:28 | 7.39143 | 151.76985 | 1823 ft | 166 kts | 45° |
| 2026-04-28 10:29 | 7.40668 | 151.78573 | 1469 ft | 150 kts | 45° |
| 2026-04-28 10:29 | 7.41366 | 151.79297 | 1272 ft | 142 kts | 45° |
| 2026-04-28 10:29 | 7.42046 | 151.80001 | 1077 ft | 141 kts | 44° |
| 2026-04-28 10:29 | 7.42731 | 151.80711 | 893 ft | 142 kts | 44° |
| 2026-04-28 10:30 | 7.43421 | 151.81427 | 699 ft | 142 kts | 44° |
| 2026-04-28 10:30 | 7.44104 | 151.82141 | 520 ft | 142 kts | 45° |
| 2026-04-28 10:30 | 7.44799 | 151.82852 | 309 ft | 142 kts | 44° |
| 2026-04-28 10:30 | 7.45484 | 151.83565 | 104 ft | 141 kts | 45° |
| 2026-04-28 10:31 | 7.46166 | 151.84270 | 17 ft | 137 kts | 46° |
| 2026-04-28 10:31 | 7.46659 | 151.84779 | 20 ft | 49 kts | 46° |
| 2026-04-28 10:31 | 7.46767 | 151.84852 | 19 ft | 9 kts | 62° |
| 2026-04-28 10:31 | 7.46726 | 151.84858 | 19 ft | 9 kts | 235° |
| 2026-04-28 10:32 | 7.46686 | 151.84808 | 19 ft | 9 kts | 225° |
| 2026-04-28 10:32 | 7.46635 | 151.84756 | 19 ft | 12 kts | 226° |
| 2026-04-28 10:32 | 7.46566 | 151.84685 | 17 ft | 16 kts | 226° |
| 2026-04-28 10:32 | 7.46483 | 151.84599 | 17 ft | 19 kts | 226° |
| 2026-04-28 10:33 | 7.46388 | 151.84499 | 16 ft | 21 kts | 226° |
| 2026-04-28 10:33 | 7.46281 | 151.84387 | 16 ft | 23 kts | 225° |
| 2026-04-28 10:33 | 7.46174 | 151.84277 | 17 ft | 21 kts | 226° |
| 2026-04-28 10:33 | 7.46067 | 151.84166 | 17 ft | 23 kts | 226° |
| 2026-04-28 10:34 | 7.45983 | 151.84078 | 19 ft | 15 kts | 225° |
| 2026-04-28 10:34 | 7.45903 | 151.84033 | 19 ft | 12 kts | 154° |
| 2026-04-28 10:34 | 7.45862 | 151.84067 | 19 ft | 5 kts | 134° |
| 2026-04-28 10:34 | 7.45851 | 151.84106 | 19 ft | 7 kts | 79° |
| 2026-04-28 10:35 | 7.45856 | 151.84150 | 18 ft | 5 kts | 133° |
| 2026-04-28 10:35 | 7.45838 | 151.84149 | 18 ft | 3 kts | 206° |
| 2026-04-28 10:35 | 7.45829 | 151.84140 | 18 ft | 0 kts | 227° |